CheckWX is a tool to help pilots better visualize weather data.  It is not intended as a substitute for an official pre-flight weather briefing.

07:09:44 UTC

KABY METAR
Southwest Georgia Regional Airport
Albany, Georgia, USA
Current

7 hours ago

KABY 202353Z 22003KT 10SM CLR 31/17 A2996
Observed
May-20 @ 23:53 UTC
Wind
  • 220° at 3 KTS
Visibility
10 SM
Flight Rules
VFR
Cloud Levels
  • Clear skies
Temperature
31°C / 88°F
Dewpoint
17°C / 63°F
Heat Index
32°C / 89°F
Humidity
43%
Altimeter
29.96" Hg
Pressure
1014.52 hPa
Previous

8 hours ago

KABY 202253Z 25003KT 10SM CLR 32/16 A2997
Observed
May-20 @ 22:53 UTC
Wind
  • 250° at 3 KTS
Visibility
10 SM
Flight Rules
VFR
Cloud Levels
  • Clear skies
Temperature
32°C / 90°F
Dewpoint
16°C / 61°F
Humidity
38%
Altimeter
29.97" Hg
Pressure
1014.92 hPa
Previous

9 hours ago

KABY 202153Z 26005KT 10SM CLR 33/16 A2997
Observed
May-20 @ 21:53 UTC
Wind
  • 260° at 5 KTS
Visibility
10 SM
Flight Rules
VFR
Cloud Levels
  • Clear skies
Temperature
33°C / 91°F
Dewpoint
16°C / 61°F
Humidity
36%
Altimeter
29.97" Hg
Pressure
1014.92 hPa